createdAt,value
2023-03-25T00:01:01.493Z,96837.75
2023-03-25T00:03:33.776Z,96839.66
2023-03-25T00:06:00.431Z,96840.53
2023-03-25T00:08:26.920Z,96835.97
2023-03-25T00:11:00.593Z,96838.53
2023-03-25T00:13:27.328Z,96831.44
2023-03-25T00:15:58.351Z,96825.53
2023-03-25T00:18:29.833Z,96832.44
2023-03-25T00:20:56.546Z,96834.84
2023-03-25T00:23:23.216Z,96823.72
2023-03-25T00:25:50.080Z,96818.41
2023-03-25T00:28:17.001Z,96824.41
2023-03-25T00:30:44.066Z,96824.16
2023-03-25T00:33:13.739Z,96821.41
2023-03-25T00:35:44.565Z,96830.16
2023-03-25T00:38:12.112Z,96822.53
2023-03-25T00:40:38.599Z,96821.28
2023-03-25T00:43:05.303Z,96828.41
2023-03-25T00:45:32.112Z,96837.03
2023-03-25T00:47:58.659Z,96841.63
2023-03-25T00:50:26.127Z,96836.84
2023-03-25T00:52:54.543Z,96847.03
2023-03-25T00:55:21.044Z,96846.69
2023-03-25T00:57:47.556Z,96842.25
2023-03-25T01:00:15.990Z,96841.00
2023-03-25T01:02:42.814Z,96842.78
2023-03-25T01:05:10.374Z,96843.06
2023-03-25T01:07:37.788Z,96845.25
2023-03-25T01:10:04.918Z,96843.56
2023-03-25T01:12:31.636Z,96840.72
2023-03-25T01:14:58.156Z,96845.97
2023-03-25T01:17:24.636Z,96835.09
2023-03-25T01:19:51.181Z,96848.84
2023-03-25T01:22:18.300Z,96848.00
2023-03-25T01:24:44.845Z,96849.41
2023-03-25T01:27:11.433Z,96861.91
2023-03-25T01:29:37.905Z,96856.38
2023-03-25T01:32:04.585Z,96850.25
2023-03-25T01:34:33.286Z,96858.34
2023-03-25T01:37:01.041Z,96861.31
2023-03-25T01:39:27.626Z,96848.00
2023-03-25T01:41:55.243Z,96851.00
2023-03-25T01:44:22.095Z,96844.66
2023-03-25T01:46:49.816Z,96849.72
2023-03-25T01:49:33.186Z,96852.28
2023-03-25T01:52:01.557Z,96845.41
2023-03-25T01:54:28.108Z,96850.13
2023-03-25T01:56:54.598Z,96851.72
2023-03-25T01:59:24.851Z,96848.91
2023-03-25T02:01:51.621Z,96850.19
2023-03-25T02:04:22.769Z,96846.53
2023-03-25T02:06:51.236Z,96836.31
2023-03-25T02:09:18.055Z,96835.50
2023-03-25T02:11:44.511Z,96832.75
2023-03-25T02:14:14.213Z,96828.03
2023-03-25T02:17:01.218Z,96827.31
2023-03-25T02:20:06.392Z,96817.44
2023-03-25T02:22:50.814Z,96821.69
2023-03-25T02:25:35.646Z,96816.53
2023-03-25T02:28:36.329Z,96822.16
2023-03-25T02:31:18.327Z,96814.63
2023-03-25T02:34:14.629Z,96810.94
2023-03-25T02:36:48.647Z,96813.34
2023-03-25T02:39:31.980Z,96805.72
2023-03-25T02:42:12.423Z,96801.56
2023-03-25T02:44:47.547Z,96812.28
2023-03-25T02:47:16.316Z,96806.16
2023-03-25T02:49:48.322Z,96801.06
2023-03-25T02:52:21.124Z,96802.47
2023-03-25T02:54:47.751Z,96793.03
2023-03-25T02:57:16.545Z,96796.13
2023-03-25T02:59:43.018Z,96784.94
2023-03-25T03:02:10.007Z,96790.16
2023-03-25T03:04:53.818Z,96776.41
2023-03-25T03:07:25.488Z,96779.56
2023-03-25T03:09:57.868Z,96782.34
2023-03-25T03:12:48.529Z,96782.72
2023-03-25T03:15:47.420Z,96772.31
2023-03-25T03:18:53.020Z,96782.19
2023-03-25T03:21:38.414Z,96786.63
2023-03-25T03:24:13.141Z,96788.88
2023-03-25T03:26:43.862Z,96784.09
2023-03-25T03:29:16.946Z,96803.34
2023-03-25T03:31:48.687Z,96799.78
2023-03-25T03:34:34.714Z,96812.47
2023-03-25T03:37:01.359Z,96801.81
2023-03-25T03:39:32.584Z,96798.19
2023-03-25T03:42:06.301Z,96798.59
2023-03-25T03:44:34.612Z,96795.75
2023-03-25T03:47:06.049Z,96797.34
2023-03-25T03:49:38.244Z,96789.78
2023-03-25T03:52:17.070Z,96787.75
2023-03-25T03:54:52.874Z,96800.47
2023-03-25T03:57:27.015Z,96806.22
2023-03-25T04:00:09.861Z,96807.66
2023-03-25T04:03:05.200Z,96801.06
2023-03-25T04:05:32.020Z,96812.22
2023-03-25T04:08:04.397Z,96805.66
2023-03-25T04:10:52.729Z,96806.78
2023-03-25T04:13:20.320Z,96809.47
2023-03-25T04:15:46.881Z,96810.69
2023-03-25T04:18:13.354Z,96809.84
2023-03-25T04:20:44.909Z,96815.50
2023-03-25T04:23:16.210Z,96818.66
2023-03-25T04:25:43.548Z,96819.81
2023-03-25T04:28:13.649Z,96815.41
2023-03-25T04:30:40.644Z,96810.00
2023-03-25T04:33:07.163Z,96812.03
2023-03-25T04:35:34.095Z,96796.66
2023-03-25T04:38:01.658Z,96791.88
2023-03-25T04:40:28.135Z,96803.22
2023-03-25T04:42:56.765Z,96806.41
2023-03-25T04:45:25.284Z,96805.00
2023-03-25T04:47:54.104Z,96806.09
2023-03-25T04:50:22.570Z,96805.34
2023-03-25T04:52:49.894Z,96812.25
2023-03-25T04:55:17.712Z,96805.13
2023-03-25T04:57:47.630Z,96799.03
2023-03-25T05:00:15.286Z,96802.16
2023-03-25T05:02:48.759Z,96805.72
2023-03-25T05:05:19.571Z,96815.09
2023-03-25T05:07:50.847Z,96798.19
2023-03-25T05:10:18.196Z,96809.50
2023-03-25T05:12:44.667Z,96806.16
2023-03-25T05:15:11.404Z,96801.31
2023-03-25T05:17:38.297Z,96805.25
2023-03-25T05:20:06.770Z,96805.25
2023-03-25T05:22:33.279Z,96813.28
2023-03-25T05:25:02.210Z,96788.69
2023-03-25T05:27:30.258Z,96806.88
2023-03-25T05:30:00.002Z,96793.41
2023-03-25T05:32:30.188Z,96800.50
2023-03-25T05:34:56.706Z,96800.94
2023-03-25T05:37:23.176Z,96819.41
2023-03-25T05:39:50.090Z,96817.06
2023-03-25T05:42:16.960Z,96815.50
2023-03-25T05:44:51.543Z,96804.13
2023-03-25T05:47:21.821Z,96810.22
2023-03-25T05:49:48.835Z,96803.91
2023-03-25T05:52:16.964Z,96814.94
2023-03-25T05:54:45.158Z,96807.75
2023-03-25T05:57:12.457Z,96805.34
2023-03-25T05:59:40.859Z,96804.13
2023-03-25T06:02:08.541Z,96795.13
2023-03-25T06:04:37.885Z,96803.84
2023-03-25T06:07:09.520Z,96820.31
2023-03-25T06:09:36.260Z,96812.84
2023-03-25T06:12:03.851Z,96814.13
2023-03-25T06:14:30.355Z,96814.88
2023-03-25T06:16:57.112Z,96805.13
2023-03-25T06:19:26.462Z,96818.13
2023-03-25T06:21:53.538Z,96818.19
2023-03-25T06:24:19.997Z,96813.72
2023-03-25T06:26:46.530Z,96819.59
2023-03-25T06:29:12.997Z,96827.56
2023-03-25T06:31:39.505Z,96823.28
2023-03-25T06:34:06.008Z,96820.38
2023-03-25T06:36:34.661Z,96820.47
2023-03-25T06:39:01.151Z,96831.56
2023-03-25T06:41:28.057Z,96826.09
2023-03-25T06:43:55.153Z,96826.41
2023-03-25T06:46:21.653Z,96835.72
2023-03-25T06:48:48.146Z,96834.75
2023-03-25T06:51:14.676Z,96827.69
2023-03-25T06:53:41.365Z,96821.94
2023-03-25T06:56:08.156Z,96827.97
2023-03-25T06:58:35.185Z,96827.16
2023-03-25T07:01:05.968Z,96835.00
2023-03-25T07:03:36.360Z,96835.78
2023-03-25T07:06:03.096Z,96827.09
2023-03-25T07:08:29.560Z,96833.47
2023-03-25T07:11:03.250Z,96829.09
2023-03-25T07:13:31.212Z,96835.22
2023-03-25T07:15:58.277Z,96826.38
2023-03-25T07:18:24.954Z,96844.88
2023-03-25T07:20:51.524Z,96854.00
2023-03-25T07:23:18.122Z,96857.84
2023-03-25T07:25:44.737Z,96854.84
2023-03-25T07:28:11.464Z,96854.03
2023-03-25T07:30:37.980Z,96860.66
2023-03-25T07:33:04.511Z,96855.69
2023-03-25T07:35:31.063Z,96852.22
2023-03-25T07:37:57.530Z,96856.81
2023-03-25T07:40:24.027Z,96845.25
2023-03-25T07:42:50.527Z,96866.59
2023-03-25T07:45:44.143Z,96856.66
2023-03-25T07:48:28.851Z,96869.66
2023-03-25T07:50:55.462Z,96852.19
2023-03-25T07:53:22.016Z,96863.56
2023-03-25T07:55:51.095Z,96863.44
2023-03-25T07:58:18.686Z,96864.22
2023-03-25T08:00:45.516Z,96865.38
2023-03-25T08:03:12.584Z,96859.94
2023-03-25T08:05:46.922Z,96864.81
2023-03-25T08:08:13.546Z,96863.22
2023-03-25T08:10:43.482Z,96867.47
2023-03-25T08:13:10.571Z,96867.47
2023-03-25T08:15:37.050Z,96850.31
2023-03-25T08:18:03.773Z,96857.72
2023-03-25T08:20:30.453Z,96862.88
2023-03-25T08:22:58.416Z,96863.31
2023-03-25T08:25:25.570Z,96867.44
2023-03-25T08:27:52.050Z,96866.66
2023-03-25T08:30:18.524Z,96870.50
2023-03-25T08:32:54.287Z,96863.81
2023-03-25T08:35:22.206Z,96856.41
2023-03-25T08:37:48.817Z,96860.69
2023-03-25T08:40:17.210Z,96860.00
2023-03-25T08:42:45.661Z,96862.34
2023-03-25T08:45:12.245Z,96860.22
2023-03-25T08:47:39.324Z,96867.72
2023-03-25T08:50:06.240Z,96849.91
2023-03-25T08:52:32.712Z,96858.94
2023-03-25T08:54:59.455Z,96854.78
2023-03-25T08:57:26.207Z,96864.31
2023-03-25T08:59:52.787Z,96856.50
2023-03-25T09:02:19.296Z,96863.75
2023-03-25T09:04:48.565Z,96875.38
2023-03-25T09:07:15.821Z,96855.56
2023-03-25T09:09:42.318Z,96855.88
2023-03-25T09:12:08.882Z,96848.28
2023-03-25T09:14:35.354Z,96847.09
2023-03-25T09:17:01.921Z,96847.78
2023-03-25T09:19:28.396Z,96839.78
2023-03-25T09:21:54.881Z,96842.81
2023-03-25T09:24:22.629Z,96840.09
2023-03-25T09:26:49.121Z,96839.91
2023-03-25T09:29:15.603Z,96848.81
2023-03-25T09:31:42.206Z,96848.38
2023-03-25T09:34:08.975Z,96857.34
2023-03-25T09:36:35.450Z,96855.88
2023-03-25T09:39:02.335Z,96840.88
2023-03-25T09:41:44.972Z,96856.34
2023-03-25T09:44:17.494Z,96846.41
2023-03-25T09:46:44.065Z,96858.16
2023-03-25T09:49:16.756Z,96843.91
2023-03-25T09:51:43.253Z,96852.91
2023-03-25T09:54:21.291Z,96859.50
2023-03-25T09:56:47.773Z,96857.81
2023-03-25T09:59:16.017Z,96866.47
2023-03-25T10:02:06.976Z,96860.16
2023-03-25T10:04:57.161Z,96842.16
2023-03-25T10:07:42.568Z,96852.28
2023-03-25T10:10:20.596Z,96847.59
2023-03-25T10:13:08.372Z,96846.06
2023-03-25T10:15:39.594Z,96845.44
2023-03-25T10:18:30.297Z,96843.81
2023-03-25T10:21:11.761Z,96851.97
2023-03-25T10:23:43.528Z,96840.78
2023-03-25T10:26:20.444Z,96837.34
2023-03-25T10:28:56.850Z,96822.78
2023-03-25T10:31:25.367Z,96833.31
2023-03-25T10:33:54.201Z,96826.84
2023-03-25T10:36:22.088Z,96832.78
2023-03-25T10:38:52.060Z,96841.88
2023-03-25T10:41:30.839Z,96838.50
2023-03-25T10:43:57.330Z,96845.97
2023-03-25T10:46:48.013Z,96865.06
2023-03-25T10:49:19.393Z,96839.72
2023-03-25T10:51:45.860Z,96833.59
2023-03-25T10:54:12.643Z,96834.22
2023-03-25T10:56:52.706Z,96839.53
2023-03-25T10:59:35.958Z,96846.09
2023-03-25T11:02:05.467Z,96823.75
2023-03-25T11:04:37.243Z,96823.28
2023-03-25T11:07:07.975Z,96838.31
2023-03-25T11:09:38.070Z,96841.81
2023-03-25T11:12:07.660Z,96862.31
2023-03-25T11:14:37.631Z,96859.56
2023-03-25T11:17:09.247Z,96854.34
2023-03-25T11:20:07.207Z,96854.69
2023-03-25T11:22:37.970Z,96861.19
2023-03-25T11:25:25.957Z,96865.13
2023-03-25T11:27:55.517Z,96840.59
2023-03-25T11:30:22.756Z,96844.53
2023-03-25T11:33:06.373Z,96857.31
2023-03-25T11:35:37.489Z,96844.38
2023-03-25T11:38:19.762Z,96835.13
2023-03-25T11:40:51.269Z,96831.56
2023-03-25T11:43:20.942Z,96830.72
2023-03-25T11:45:47.694Z,96833.34
2023-03-25T11:48:19.477Z,96844.03
2023-03-25T11:50:57.156Z,96849.22
2023-03-25T11:53:25.228Z,96846.84
2023-03-25T11:55:54.432Z,96852.38
2023-03-25T11:58:27.509Z,96832.06
2023-03-25T12:01:01.260Z,96849.63
2023-03-25T12:03:27.872Z,96846.81
2023-03-25T12:06:05.364Z,96846.34
2023-03-25T12:08:49.014Z,96831.34
2023-03-25T12:11:42.498Z,96819.97
2023-03-25T12:14:18.026Z,96839.38
2023-03-25T12:16:55.025Z,96849.34
2023-03-25T12:19:52.306Z,96858.38
2023-03-25T12:22:57.778Z,96850.75
2023-03-25T12:25:27.049Z,96847.22
2023-03-25T12:27:59.702Z,96842.34
2023-03-25T12:30:49.735Z,96861.50
2023-03-25T12:33:31.443Z,96841.16
2023-03-25T12:36:30.520Z,96843.94
2023-03-25T12:39:29.334Z,96832.72
2023-03-25T12:42:25.250Z,96821.91
2023-03-25T12:45:24.749Z,96839.13
2023-03-25T12:48:22.524Z,96842.25
2023-03-25T12:51:22.135Z,96833.94
2023-03-25T12:54:08.726Z,96826.44
2023-03-25T12:56:52.887Z,96819.00
2023-03-25T12:59:31.331Z,96828.88
2023-03-25T13:02:06.831Z,96819.66
2023-03-25T13:04:36.438Z,96828.09
2023-03-25T13:07:04.805Z,96827.22
2023-03-25T13:09:35.038Z,96828.88
2023-03-25T13:12:03.574Z,96839.06
2023-03-25T13:14:33.451Z,96840.28
2023-03-25T13:17:02.103Z,96835.47
2023-03-25T13:19:29.348Z,96840.13
2023-03-25T13:21:57.477Z,96845.66
2023-03-25T13:24:54.745Z,96832.47
2023-03-25T13:27:21.213Z,96844.63
2023-03-25T13:29:56.831Z,96841.09
2023-03-25T13:32:33.866Z,96835.56
2023-03-25T13:35:07.465Z,96849.66
2023-03-25T13:37:38.882Z,96830.22
2023-03-25T13:40:11.825Z,96822.28
2023-03-25T13:42:41.708Z,96832.56
2023-03-25T13:45:13.050Z,96839.31
2023-03-25T13:47:41.592Z,96823.09
2023-03-25T13:50:16.010Z,96833.22
2023-03-25T13:52:43.997Z,96815.81
2023-03-25T13:55:22.727Z,96809.97
2023-03-25T13:58:09.473Z,96825.81
2023-03-25T14:00:44.811Z,96819.44
2023-03-25T14:03:42.414Z,96824.09
2023-03-25T14:06:21.032Z,96829.94
2023-03-25T14:09:06.347Z,96844.09
2023-03-25T14:11:42.383Z,96843.91
2023-03-25T14:14:11.388Z,96836.94
2023-03-25T14:16:42.515Z,96829.66
2023-03-25T14:19:14.266Z,96822.09
2023-03-25T14:21:42.135Z,96829.66
2023-03-25T14:24:18.513Z,96832.63
2023-03-25T14:26:52.760Z,96831.19
2023-03-25T14:29:27.705Z,96833.41
2023-03-25T14:32:09.437Z,96834.13
2023-03-25T14:34:39.343Z,96832.53
2023-03-25T14:37:07.089Z,96818.88
2023-03-25T14:39:33.393Z,96820.75
2023-03-25T14:42:08.640Z,96837.66
2023-03-25T14:44:41.100Z,96826.50
2023-03-25T14:47:16.148Z,96832.41
2023-03-25T14:50:00.497Z,96823.97
2023-03-25T14:52:40.532Z,96824.56
2023-03-25T14:55:29.014Z,96816.00
2023-03-25T14:57:58.660Z,96794.75
2023-03-25T15:00:29.771Z,96814.13
2023-03-25T15:03:10.679Z,96808.50
2023-03-25T15:05:37.590Z,96802.03
2023-03-25T15:08:07.229Z,96798.50
2023-03-25T15:10:36.685Z,96785.38
2023-03-25T15:13:07.392Z,96781.44
2023-03-25T15:15:59.805Z,96775.47
2023-03-25T15:18:35.439Z,96764.81
2023-03-25T15:21:10.544Z,96764.41
2023-03-25T15:23:47.478Z,96754.94
2023-03-25T15:26:39.213Z,96772.00
2023-03-25T15:29:27.920Z,96777.59
2023-03-25T15:32:18.195Z,96797.44
2023-03-25T15:34:50.596Z,96776.00
2023-03-25T15:37:46.244Z,96783.94
2023-03-25T15:40:26.612Z,96781.81
2023-03-25T15:43:08.792Z,96779.31
2023-03-25T15:46:12.848Z,96795.88
2023-03-25T15:48:41.999Z,96801.22
2023-03-25T15:51:11.355Z,96810.97
2023-03-25T15:53:52.230Z,96813.50
2023-03-25T15:56:23.826Z,96826.09
2023-03-25T15:59:15.916Z,96824.50
2023-03-25T16:01:43.452Z,96835.19
2023-03-25T16:04:22.439Z,96839.84
2023-03-25T16:06:50.787Z,96828.06
2023-03-25T16:09:27.306Z,96827.69
2023-03-25T16:11:59.200Z,96823.19
2023-03-25T16:14:29.187Z,96833.03
2023-03-25T16:16:56.587Z,96856.72
2023-03-25T16:19:24.465Z,96854.16
2023-03-25T16:21:52.235Z,96863.69
2023-03-25T16:24:20.517Z,96881.47
2023-03-25T16:26:48.126Z,96851.84
2023-03-25T16:29:22.376Z,96870.41
2023-03-25T16:31:52.921Z,96864.50
2023-03-25T16:34:19.633Z,96854.69
2023-03-25T16:36:46.648Z,96851.78
2023-03-25T16:39:14.714Z,96865.22
2023-03-25T16:41:48.898Z,96856.81
2023-03-25T16:44:21.983Z,96851.44
2023-03-25T16:46:48.486Z,96851.78
2023-03-25T16:49:26.233Z,96841.56
2023-03-25T16:51:52.699Z,96843.44
2023-03-25T16:54:28.207Z,96844.16
2023-03-25T16:56:54.889Z,96847.31
2023-03-25T16:59:28.531Z,96842.91
2023-03-25T17:01:56.836Z,96834.50
2023-03-25T17:04:26.180Z,96824.63
2023-03-25T17:07:02.931Z,96840.38
2023-03-25T17:09:34.344Z,96830.06
2023-03-25T17:12:02.350Z,96829.63
2023-03-25T17:14:31.258Z,96832.47
2023-03-25T17:17:19.359Z,96830.22
2023-03-25T17:19:47.402Z,96850.44
2023-03-25T17:22:19.759Z,96866.22
2023-03-25T17:25:12.208Z,96893.41
2023-03-25T17:27:43.479Z,96899.72
2023-03-25T17:30:42.520Z,96915.72
2023-03-25T17:33:20.072Z,96929.44
2023-03-25T17:35:53.945Z,96919.63
2023-03-25T17:38:28.496Z,96931.56
2023-03-25T17:41:06.615Z,96921.13
2023-03-25T17:43:34.632Z,96929.41
2023-03-25T17:46:01.431Z,96925.84
2023-03-25T17:48:28.231Z,96926.94
2023-03-25T17:50:56.005Z,96940.00
2023-03-25T17:53:22.664Z,96944.66
2023-03-25T17:55:49.157Z,96939.06
2023-03-25T17:58:16.263Z,96938.69
2023-03-25T18:00:42.979Z,96933.91
2023-03-25T18:03:14.400Z,96936.56
2023-03-25T18:05:41.009Z,96928.53
2023-03-25T18:08:11.347Z,96936.56
2023-03-25T18:10:37.673Z,96937.47
2023-03-25T18:13:05.245Z,96948.78
2023-03-25T18:15:34.443Z,96964.25
2023-03-25T18:18:01.259Z,96975.06
2023-03-25T18:20:29.354Z,96970.84
2023-03-25T18:22:56.038Z,96983.69
2023-03-25T18:25:22.664Z,96980.50
2023-03-25T18:27:51.286Z,96981.28
2023-03-25T18:30:20.232Z,96981.28
2023-03-25T18:32:47.029Z,96978.97
2023-03-25T18:35:13.558Z,96990.91
2023-03-25T18:37:41.593Z,96979.69
2023-03-25T18:40:28.320Z,96973.16
2023-03-25T18:42:55.337Z,96979.63
2023-03-25T18:45:23.190Z,96982.97
2023-03-25T18:47:49.995Z,96980.41
2023-03-25T18:50:26.710Z,96999.28
2023-03-25T18:52:53.445Z,97002.31
2023-03-25T18:55:19.913Z,97004.78
2023-03-25T18:57:46.519Z,96984.19
2023-03-25T19:00:19.696Z,96996.00
2023-03-25T19:02:46.381Z,96991.59
2023-03-25T19:05:13.107Z,96997.28
2023-03-25T19:07:40.161Z,97004.41
2023-03-25T19:10:07.250Z,96993.00
2023-03-25T19:12:33.752Z,97010.34
2023-03-25T19:15:00.226Z,97001.03
2023-03-25T19:17:26.824Z,97011.34
2023-03-25T19:19:53.335Z,97021.66
2023-03-25T19:22:19.809Z,97024.34
2023-03-25T19:24:46.871Z,97018.63
2023-03-25T19:27:13.357Z,97017.09
2023-03-25T19:29:39.836Z,97022.91
2023-03-25T19:32:06.487Z,97015.78
2023-03-25T19:34:33.389Z,97027.47
2023-03-25T19:37:02.746Z,97022.56
2023-03-25T19:39:29.512Z,97029.22
2023-03-25T19:41:56.086Z,97027.88
2023-03-25T19:44:22.606Z,97038.03
2023-03-25T19:46:49.141Z,97037.59
2023-03-25T19:49:22.755Z,97037.16
2023-03-25T19:51:55.948Z,97044.44
2023-03-25T19:54:22.479Z,97043.56
2023-03-25T19:56:48.987Z,97054.16
2023-03-25T19:59:17.311Z,97052.00
2023-03-25T20:01:44.438Z,97054.06
2023-03-25T20:04:13.850Z,97060.38
2023-03-25T20:06:41.426Z,97055.47
2023-03-25T20:09:08.083Z,97059.47
2023-03-25T20:11:34.572Z,97059.91
2023-03-25T20:14:01.376Z,97059.28
2023-03-25T20:16:28.317Z,97060.81
2023-03-25T20:18:54.860Z,97051.47
2023-03-25T20:21:22.927Z,97052.56
2023-03-25T20:23:49.398Z,97059.13
2023-03-25T20:26:16.456Z,97058.22
2023-03-25T20:28:42.921Z,97071.09
2023-03-25T20:31:16.458Z,97062.31
2023-03-25T20:33:43.012Z,97060.53
2023-03-25T20:36:09.783Z,97074.03
2023-03-25T20:38:41.848Z,97060.63
2023-03-25T20:41:11.064Z,97066.03
2023-03-25T20:43:37.639Z,97063.03
2023-03-25T20:46:04.178Z,97066.13
2023-03-25T20:48:30.644Z,97062.56
2023-03-25T20:51:00.944Z,97069.69
2023-03-25T20:53:28.987Z,97072.88
2023-03-25T20:55:56.819Z,97073.69
2023-03-25T20:58:23.941Z,97072.63
2023-03-25T21:00:50.567Z,97070.03
2023-03-25T21:03:17.326Z,97069.44
2023-03-25T21:05:46.851Z,97064.38
2023-03-25T21:08:13.589Z,97070.13
2023-03-25T21:10:40.321Z,97074.41
2023-03-25T21:13:06.919Z,97072.19
2023-03-25T21:15:33.455Z,97074.94
2023-03-25T21:18:00.041Z,97083.56
2023-03-25T21:20:28.719Z,97081.50
2023-03-25T21:22:57.153Z,97082.66
2023-03-25T21:25:23.701Z,97086.41
2023-03-25T21:27:51.275Z,97079.00
2023-03-25T21:30:17.787Z,97088.88
2023-03-25T21:32:44.313Z,97089.69
2023-03-25T21:35:10.831Z,97105.75
2023-03-25T21:37:40.522Z,97101.59
2023-03-25T21:40:09.978Z,97099.03
2023-03-25T21:42:38.452Z,97096.91
2023-03-25T21:45:07.328Z,97103.56
2023-03-25T21:47:34.944Z,97100.09
2023-03-25T21:50:02.072Z,97108.09
2023-03-25T21:52:28.530Z,97099.28
2023-03-25T21:54:55.007Z,97107.13
2023-03-25T21:57:21.856Z,97103.47
2023-03-25T21:59:48.342Z,97099.09
2023-03-25T22:02:14.827Z,97106.31
2023-03-25T22:04:41.347Z,97118.94
2023-03-25T22:07:07.863Z,97116.72
2023-03-25T22:09:34.893Z,97108.63
2023-03-25T22:12:01.369Z,97098.41
2023-03-25T22:14:27.841Z,97098.25
2023-03-25T22:16:54.372Z,97093.53
2023-03-25T22:19:22.603Z,97095.28
2023-03-25T22:21:50.926Z,97099.41
2023-03-25T22:24:17.381Z,97096.19
2023-03-25T22:26:43.987Z,97097.69
2023-03-25T22:29:10.625Z,97112.47
2023-03-25T22:31:40.595Z,97103.03
2023-03-25T22:34:12.688Z,97116.53
2023-03-25T22:36:40.844Z,97106.84
2023-03-25T22:39:07.342Z,97120.75
2023-03-25T22:41:33.899Z,97115.75
2023-03-25T22:44:00.581Z,97118.78
2023-03-25T22:46:27.107Z,97119.50
2023-03-25T22:48:53.671Z,97117.00
2023-03-25T22:51:20.581Z,97128.72
2023-03-25T22:53:47.066Z,97129.06
2023-03-25T22:56:13.650Z,97123.56
2023-03-25T22:58:40.418Z,97136.53
2023-03-25T23:01:23.963Z,97130.06
2023-03-25T23:03:51.230Z,97143.50
2023-03-25T23:06:17.810Z,97138.44
2023-03-25T23:08:44.924Z,97137.53
2023-03-25T23:11:17.229Z,97139.75
2023-03-25T23:13:45.054Z,97146.34
2023-03-25T23:16:13.297Z,97145.25
2023-03-25T23:18:41.800Z,97143.16
2023-03-25T23:21:12.273Z,97155.31
2023-03-25T23:23:38.767Z,97153.47
2023-03-25T23:26:27.662Z,97160.66
2023-03-25T23:28:56.381Z,97146.16
2023-03-25T23:31:28.508Z,97155.13
2023-03-25T23:33:57.049Z,97142.78
2023-03-25T23:36:23.598Z,97145.72
2023-03-25T23:38:50.169Z,97150.16
2023-03-25T23:41:17.505Z,97152.66
2023-03-25T23:43:45.147Z,97143.03
2023-03-25T23:46:12.219Z,97147.75
2023-03-25T23:48:41.777Z,97146.25
2023-03-25T23:51:10.488Z,97150.63
2023-03-25T23:53:37.935Z,97151.56
2023-03-25T23:56:04.701Z,97157.13
2023-03-25T23:58:33.078Z,97158.00
